createdAt,value
2023-01-18T00:00:36.587Z,90.61
2023-01-18T00:03:19.170Z,90.55
2023-01-18T00:05:45.472Z,90.51
2023-01-18T00:08:15.936Z,90.44
2023-01-18T00:10:43.203Z,90.64
2023-01-18T00:13:10.430Z,90.39
2023-01-18T00:15:38.581Z,90.35
2023-01-18T00:18:05.463Z,89.84
2023-01-18T00:20:32.179Z,89.96
2023-01-18T00:23:01.152Z,89.89
2023-01-18T00:25:28.488Z,90.03
2023-01-18T00:27:55.535Z,90.04
2023-01-18T00:30:26.379Z,90.49
2023-01-18T00:32:55.757Z,90.38
2023-01-18T00:35:22.897Z,90.36
2023-01-18T00:37:50.923Z,90.40
2023-01-18T00:40:18.628Z,90.06
2023-01-18T00:43:03.760Z,89.62
2023-01-18T00:45:30.070Z,89.74
2023-01-18T00:47:57.588Z,89.77
2023-01-18T00:50:24.032Z,89.69
2023-01-18T00:52:50.631Z,90.52
2023-01-18T00:55:17.130Z,89.93
2023-01-18T00:57:43.814Z,90.31
2023-01-18T01:00:14.469Z,90.45
2023-01-18T01:02:41.167Z,90.47
2023-01-18T01:05:38.544Z,89.92
2023-01-18T01:08:06.352Z,90.62
2023-01-18T01:10:33.982Z,90.33
2023-01-18T01:13:19.609Z,90.07
2023-01-18T01:16:04.706Z,90.31
2023-01-18T01:18:49.698Z,90.27
2023-01-18T01:21:34.272Z,90.76
2023-01-18T01:24:19.444Z,90.05
2023-01-18T01:26:45.695Z,90.75
2023-01-18T01:29:12.060Z,90.69
2023-01-18T01:31:38.776Z,90.61
2023-01-18T01:34:05.129Z,91.47
2023-01-18T01:36:31.471Z,90.57
2023-01-18T01:38:57.937Z,90.76
2023-01-18T01:41:27.366Z,90.76
2023-01-18T01:43:55.026Z,91.32
2023-01-18T01:46:39.566Z,91.10
2023-01-18T01:49:19.508Z,90.60
2023-01-18T01:51:50.918Z,91.20
2023-01-18T01:54:39.894Z,91.35
2023-01-18T01:57:18.490Z,92.71
2023-01-18T01:59:53.150Z,92.58
2023-01-18T02:02:19.629Z,91.89
2023-01-18T02:04:52.808Z,91.88
2023-01-18T02:07:20.580Z,91.90
2023-01-18T02:09:47.436Z,92.35
2023-01-18T02:12:14.092Z,91.13
2023-01-18T02:14:41.180Z,91.40
2023-01-18T02:17:31.068Z,91.64
2023-01-18T02:20:30.953Z,92.72
2023-01-18T02:23:18.610Z,92.47
2023-01-18T02:26:22.100Z,92.89
2023-01-18T02:29:18.963Z,92.65
2023-01-18T02:31:45.235Z,92.60
2023-01-18T02:34:33.216Z,92.01
2023-01-18T02:37:16.135Z,92.00
2023-01-18T02:39:57.521Z,91.89
2023-01-18T02:42:45.813Z,91.37
2023-01-18T02:45:39.919Z,91.76
2023-01-18T02:48:07.856Z,92.08
2023-01-18T02:50:34.169Z,92.16
2023-01-18T02:53:00.511Z,91.97
2023-01-18T02:55:29.536Z,91.82
2023-01-18T02:58:03.094Z,91.50
2023-01-18T03:00:32.407Z,92.03
2023-01-18T03:03:00.497Z,92.13
2023-01-18T03:05:28.898Z,92.12
2023-01-18T03:08:08.741Z,91.70
2023-01-18T03:10:44.331Z,91.94
2023-01-18T03:13:17.501Z,91.94
2023-01-18T03:15:59.344Z,91.66
2023-01-18T03:18:36.888Z,92.03
2023-01-18T03:21:07.357Z,91.95
2023-01-18T03:23:39.105Z,92.29
2023-01-18T03:26:13.890Z,92.02
2023-01-18T03:29:02.318Z,92.02
2023-01-18T03:32:06.163Z,92.33
2023-01-18T03:34:42.140Z,92.12
2023-01-18T03:37:12.391Z,91.91
2023-01-18T03:39:44.683Z,91.83
2023-01-18T03:42:44.378Z,91.92
2023-01-18T03:45:17.087Z,91.85
2023-01-18T03:47:43.457Z,92.27
2023-01-18T03:50:10.107Z,91.64
2023-01-18T03:52:42.062Z,91.86
2023-01-18T03:55:16.106Z,92.36
2023-01-18T03:57:49.455Z,92.15
2023-01-18T04:00:16.697Z,91.72
2023-01-18T04:02:44.591Z,91.88
2023-01-18T04:05:11.734Z,92.12
2023-01-18T04:07:38.157Z,91.73
2023-01-18T04:10:05.033Z,92.06
2023-01-18T04:12:33.620Z,92.09
2023-01-18T04:15:00.694Z,92.24
2023-01-18T04:17:27.357Z,91.98
2023-01-18T04:19:53.623Z,91.83
2023-01-18T04:22:20.126Z,92.02
2023-01-18T04:24:46.434Z,92.11
2023-01-18T04:27:12.753Z,91.49
2023-01-18T04:29:39.028Z,91.90
2023-01-18T04:32:05.362Z,92.25
2023-01-18T04:34:32.660Z,91.92
2023-01-18T04:36:59.601Z,92.21
2023-01-18T04:39:25.933Z,92.03
2023-01-18T04:41:52.303Z,91.94
2023-01-18T04:44:18.576Z,92.37
2023-01-18T04:46:44.932Z,92.39
2023-01-18T04:49:14.716Z,91.95
2023-01-18T04:51:41.896Z,92.13
2023-01-18T04:54:09.097Z,92.16
2023-01-18T04:56:35.428Z,92.03
2023-01-18T04:59:01.923Z,91.96
2023-01-18T05:01:28.925Z,92.14
2023-01-18T05:03:55.720Z,92.22
2023-01-18T05:06:23.801Z,92.20
2023-01-18T05:08:50.575Z,92.22
2023-01-18T05:11:19.788Z,92.11
2023-01-18T05:13:46.667Z,91.91
2023-01-18T05:16:16.580Z,92.44
2023-01-18T05:18:43.875Z,92.25
2023-01-18T05:21:11.342Z,92.23
2023-01-18T05:23:39.572Z,92.47
2023-01-18T05:26:13.930Z,92.27
2023-01-18T05:28:41.869Z,92.18
2023-01-18T05:31:09.048Z,92.47
2023-01-18T05:33:35.542Z,92.64
2023-01-18T05:36:02.077Z,92.77
2023-01-18T05:38:28.472Z,92.64
2023-01-18T05:40:54.849Z,92.57
2023-01-18T05:43:23.179Z,92.75
2023-01-18T05:45:49.523Z,92.62
2023-01-18T05:48:16.472Z,92.22
2023-01-18T05:50:45.163Z,92.69
2023-01-18T05:53:17.565Z,92.95
2023-01-18T05:55:52.388Z,93.00
2023-01-18T05:58:18.646Z,92.98
2023-01-18T06:00:45.049Z,92.59
2023-01-18T06:03:11.379Z,92.71
2023-01-18T06:05:37.652Z,93.12
2023-01-18T06:08:04.284Z,92.82
2023-01-18T06:10:30.638Z,92.96
2023-01-18T06:12:57.327Z,93.14
2023-01-18T06:15:23.861Z,93.10
2023-01-18T06:17:50.154Z,93.41
2023-01-18T06:20:16.582Z,93.05
2023-01-18T06:22:44.828Z,93.09
2023-01-18T06:25:11.134Z,93.07
2023-01-18T06:27:38.641Z,93.08
2023-01-18T06:30:06.758Z,93.40
2023-01-18T06:32:33.385Z,93.14
2023-01-18T06:34:59.686Z,93.17
2023-01-18T06:37:26.021Z,93.38
2023-01-18T06:39:52.287Z,93.56
2023-01-18T06:42:18.873Z,93.19
2023-01-18T06:44:45.218Z,94.21
2023-01-18T06:47:11.554Z,93.73
2023-01-18T06:49:39.409Z,93.34
2023-01-18T06:52:05.754Z,93.35
2023-01-18T06:54:32.138Z,93.41
2023-01-18T06:56:58.471Z,93.50
2023-01-18T06:59:24.732Z,93.45
2023-01-18T07:01:53.832Z,93.69
2023-01-18T07:04:20.263Z,93.86
2023-01-18T07:06:46.649Z,93.62
2023-01-18T07:09:13.857Z,93.57
2023-01-18T07:11:42.597Z,93.42
2023-01-18T07:14:12.709Z,93.20
2023-01-18T07:16:39.053Z,93.40
2023-01-18T07:19:05.515Z,93.52
2023-01-18T07:21:32.049Z,93.38
2023-01-18T07:23:59.130Z,93.42
2023-01-18T07:26:25.808Z,93.40
2023-01-18T07:28:54.033Z,93.20
2023-01-18T07:31:20.672Z,93.23
2023-01-18T07:33:46.976Z,93.72
2023-01-18T07:36:13.323Z,93.83
2023-01-18T07:38:39.701Z,93.60
2023-01-18T07:41:09.304Z,93.59
2023-01-18T07:43:39.373Z,93.66
2023-01-18T07:46:08.684Z,93.73
2023-01-18T07:48:38.079Z,93.63
2023-01-18T07:51:07.904Z,93.39
2023-01-18T07:53:35.731Z,93.52
2023-01-18T07:56:05.265Z,93.45
2023-01-18T07:58:33.071Z,93.33
2023-01-18T08:01:10.012Z,93.41
2023-01-18T08:03:37.469Z,93.71
2023-01-18T08:06:06.529Z,93.42
2023-01-18T08:08:34.989Z,93.71
2023-01-18T08:11:03.389Z,93.83
2023-01-18T08:13:30.337Z,93.11
2023-01-18T08:16:00.144Z,93.88
2023-01-18T08:18:26.752Z,93.57
2023-01-18T08:20:55.165Z,93.53
2023-01-18T08:23:23.538Z,93.45
2023-01-18T08:25:50.401Z,93.66
2023-01-18T08:28:17.109Z,93.44
2023-01-18T08:30:46.720Z,93.47
2023-01-18T08:33:13.415Z,93.05
2023-01-18T08:35:44.968Z,93.34
2023-01-18T08:38:13.461Z,93.45
2023-01-18T08:40:39.946Z,93.24
2023-01-18T08:43:06.728Z,93.31
2023-01-18T08:45:36.397Z,93.64
2023-01-18T08:48:09.084Z,93.53
2023-01-18T08:50:36.308Z,93.34
2023-01-18T08:53:03.631Z,93.25
2023-01-18T08:55:30.973Z,93.26
2023-01-18T08:57:57.649Z,93.53
2023-01-18T09:00:27.711Z,93.13
2023-01-18T09:02:54.384Z,93.25
2023-01-18T09:05:21.529Z,93.36
2023-01-18T09:07:48.214Z,93.57
2023-01-18T09:10:14.910Z,93.54
2023-01-18T09:12:41.325Z,93.27
2023-01-18T09:15:08.431Z,93.47
2023-01-18T09:17:34.806Z,93.46
2023-01-18T09:20:01.219Z,93.42
2023-01-18T09:22:27.725Z,93.47
2023-01-18T09:24:54.016Z,93.32
2023-01-18T09:27:20.268Z,93.66
2023-01-18T09:29:51.476Z,93.45
2023-01-18T09:32:20.665Z,93.45
2023-01-18T09:34:50.093Z,93.47
2023-01-18T09:37:18.383Z,93.56
2023-01-18T09:39:51.811Z,93.32
2023-01-18T09:42:24.635Z,93.80
2023-01-18T09:44:54.636Z,93.37
2023-01-18T09:47:42.766Z,93.40
2023-01-18T09:50:12.569Z,93.73
2023-01-18T09:52:47.935Z,93.62
2023-01-18T09:55:47.166Z,93.47
2023-01-18T09:58:38.653Z,93.31
2023-01-18T10:01:11.752Z,93.33
2023-01-18T10:03:59.634Z,93.17
2023-01-18T10:06:42.083Z,93.21
2023-01-18T10:09:20.223Z,93.31
2023-01-18T10:12:02.215Z,93.52
2023-01-18T10:14:39.426Z,93.41
2023-01-18T10:17:17.270Z,93.28
2023-01-18T10:19:44.074Z,93.25
2023-01-18T10:22:13.241Z,93.84
2023-01-18T10:24:39.504Z,93.35
2023-01-18T10:27:31.140Z,93.45
2023-01-18T10:30:14.246Z,93.71
2023-01-18T10:32:51.275Z,93.67
2023-01-18T10:35:27.140Z,93.71
2023-01-18T10:37:58.581Z,93.48
2023-01-18T10:40:25.321Z,93.44
2023-01-18T10:42:56.395Z,93.59
2023-01-18T10:45:29.205Z,93.86
2023-01-18T10:47:57.699Z,93.74
2023-01-18T10:50:36.786Z,93.67
2023-01-18T10:53:26.731Z,93.50
2023-01-18T10:56:01.427Z,93.81
2023-01-18T10:58:32.284Z,93.82
2023-01-18T11:01:01.241Z,93.93
2023-01-18T11:03:28.353Z,93.81
2023-01-18T11:06:04.287Z,93.64
2023-01-18T11:08:33.579Z,93.79
2023-01-18T11:10:59.801Z,93.64
2023-01-18T11:13:38.190Z,94.02
2023-01-18T11:16:16.852Z,94.06
2023-01-18T11:19:00.057Z,93.78
2023-01-18T11:21:32.496Z,93.68
2023-01-18T11:24:07.019Z,93.80
2023-01-18T11:26:33.917Z,93.48
2023-01-18T11:29:04.595Z,93.70
2023-01-18T11:31:52.244Z,93.39
2023-01-18T11:34:49.372Z,93.44
2023-01-18T11:37:33.660Z,93.72
2023-01-18T11:40:20.479Z,93.50
2023-01-18T11:42:50.138Z,93.34
2023-01-18T11:45:45.378Z,93.20
2023-01-18T11:48:29.448Z,93.04
2023-01-18T11:51:01.939Z,93.39
2023-01-18T11:53:40.972Z,93.37
2023-01-18T11:56:18.361Z,93.47
2023-01-18T11:58:44.811Z,93.44
2023-01-18T12:01:42.837Z,93.53
2023-01-18T12:04:32.494Z,93.33
2023-01-18T12:07:14.511Z,93.30
2023-01-18T12:09:49.958Z,93.53
2023-01-18T12:12:42.523Z,93.46
2023-01-18T12:15:38.088Z,93.28
2023-01-18T12:18:21.346Z,93.26
2023-01-18T12:21:09.851Z,93.13
2023-01-18T12:24:01.043Z,93.16
2023-01-18T12:26:53.087Z,92.96
2023-01-18T12:30:01.159Z,93.02
2023-01-18T12:32:46.437Z,93.36
2023-01-18T12:35:23.713Z,92.92
2023-01-18T12:38:08.348Z,92.75
2023-01-18T12:40:55.983Z,93.07
2023-01-18T12:43:49.157Z,92.81
2023-01-18T12:47:02.256Z,92.48
2023-01-18T12:49:31.014Z,92.54
2023-01-18T12:52:17.812Z,92.63
2023-01-18T12:54:48.476Z,92.70
2023-01-18T12:57:16.429Z,93.02
2023-01-18T12:59:58.949Z,92.73
2023-01-18T13:02:39.152Z,93.09
2023-01-18T13:05:21.026Z,92.87
2023-01-18T13:08:05.864Z,92.65
2023-01-18T13:10:34.551Z,92.65
2023-01-18T13:13:03.229Z,92.88
2023-01-18T13:15:50.769Z,92.93
2023-01-18T13:18:24.605Z,92.74
2023-01-18T13:21:19.579Z,92.83
2023-01-18T13:24:05.466Z,92.72
2023-01-18T13:26:33.819Z,92.85
2023-01-18T13:29:31.245Z,92.57
2023-01-18T13:31:57.663Z,92.54
2023-01-18T13:34:42.213Z,92.37
2023-01-18T13:37:51.483Z,92.80
2023-01-18T13:40:29.629Z,92.47
2023-01-18T13:42:56.024Z,92.27
2023-01-18T13:45:24.918Z,92.60
2023-01-18T13:48:06.901Z,92.21
2023-01-18T13:50:39.158Z,92.26
2023-01-18T13:53:14.505Z,92.03
2023-01-18T13:55:45.962Z,92.07
2023-01-18T13:58:19.740Z,92.07
2023-01-18T14:00:47.837Z,92.11
2023-01-18T14:03:20.166Z,91.88
2023-01-18T14:05:48.172Z,92.33
2023-01-18T14:08:28.434Z,92.11
2023-01-18T14:11:03.717Z,91.99
2023-01-18T14:13:45.275Z,91.89
2023-01-18T14:16:33.361Z,92.02
2023-01-18T14:19:11.365Z,92.09
2023-01-18T14:22:07.475Z,91.92
2023-01-18T14:24:42.609Z,91.94
2023-01-18T14:27:15.959Z,91.84
2023-01-18T14:29:59.335Z,92.00
2023-01-18T14:32:34.255Z,91.64
2023-01-18T14:35:03.750Z,91.82
2023-01-18T14:37:32.821Z,91.99
2023-01-18T14:40:17.691Z,92.04
2023-01-18T14:42:58.124Z,92.02
2023-01-18T14:45:28.380Z,91.96
2023-01-18T14:47:59.462Z,92.03
2023-01-18T14:50:31.416Z,92.05
2023-01-18T14:52:58.658Z,92.17
2023-01-18T14:55:33.591Z,92.32
2023-01-18T14:58:03.082Z,92.19
2023-01-18T15:00:29.515Z,92.08
2023-01-18T15:02:56.011Z,91.98
2023-01-18T15:05:27.997Z,92.13
2023-01-18T15:07:55.400Z,92.13
2023-01-18T15:10:23.491Z,92.22
2023-01-18T15:12:54.446Z,92.04
2023-01-18T15:15:36.625Z,92.18
2023-01-18T15:18:10.173Z,92.11
2023-01-18T15:20:57.555Z,91.92
2023-01-18T15:23:24.757Z,92.39
2023-01-18T15:25:52.450Z,91.97
2023-01-18T15:28:24.084Z,92.05
2023-01-18T15:30:55.436Z,92.16
2023-01-18T15:33:24.325Z,92.05
2023-01-18T15:35:56.355Z,91.94
2023-01-18T15:38:22.856Z,92.27
2023-01-18T15:41:03.523Z,92.33
2023-01-18T15:43:33.971Z,92.63
2023-01-18T15:46:00.814Z,92.24
2023-01-18T15:48:32.855Z,92.35
2023-01-18T15:51:07.026Z,92.40
2023-01-18T15:53:37.212Z,92.25
2023-01-18T15:56:07.199Z,92.57
2023-01-18T15:58:44.035Z,92.67
2023-01-18T16:01:13.196Z,92.51
2023-01-18T16:03:45.432Z,92.46
2023-01-18T16:06:19.369Z,92.61
2023-01-18T16:09:11.530Z,92.65
2023-01-18T16:11:38.204Z,92.56
2023-01-18T16:14:12.632Z,92.76
2023-01-18T16:16:40.926Z,92.87
2023-01-18T16:19:26.209Z,92.80
2023-01-18T16:21:58.134Z,92.71
2023-01-18T16:24:30.587Z,92.85
2023-01-18T16:27:11.108Z,92.80
2023-01-18T16:29:49.823Z,92.90
2023-01-18T16:32:22.120Z,93.10
2023-01-18T16:34:49.198Z,92.95
2023-01-18T16:37:17.471Z,93.49
2023-01-18T16:39:44.287Z,93.11
2023-01-18T16:42:11.933Z,93.34
2023-01-18T16:44:41.973Z,93.23
2023-01-18T16:47:13.091Z,93.49
2023-01-18T16:49:40.416Z,93.12
2023-01-18T16:52:12.001Z,93.13
2023-01-18T16:54:43.059Z,93.40
2023-01-18T16:57:28.913Z,93.39
2023-01-18T16:59:55.445Z,93.40
2023-01-18T17:02:21.778Z,93.31
2023-01-18T17:04:48.229Z,93.45
2023-01-18T17:07:15.185Z,92.98
2023-01-18T17:09:48.351Z,93.60
2023-01-18T17:12:15.581Z,93.43
2023-01-18T17:14:41.971Z,93.41
2023-01-18T17:17:09.616Z,93.32
2023-01-18T17:19:37.021Z,93.36
2023-01-18T17:22:03.714Z,93.06
2023-01-18T17:24:30.024Z,93.42
2023-01-18T17:26:56.363Z,93.23
2023-01-18T17:29:22.664Z,93.34
2023-01-18T17:31:52.536Z,92.92
2023-01-18T17:34:27.854Z,92.85
2023-01-18T17:36:59.029Z,93.02
2023-01-18T17:39:37.026Z,93.19
2023-01-18T17:42:18.945Z,92.87
2023-01-18T17:44:50.115Z,93.00
2023-01-18T17:47:16.431Z,92.94
2023-01-18T17:49:42.743Z,92.83
2023-01-18T17:52:09.031Z,93.24
2023-01-18T17:54:35.418Z,93.06
2023-01-18T17:57:01.945Z,93.25
2023-01-18T17:59:28.233Z,93.33
2023-01-18T18:01:54.580Z,93.23
2023-01-18T18:04:20.867Z,93.51
2023-01-18T18:06:54.307Z,93.51
2023-01-18T18:09:20.926Z,93.45
2023-01-18T18:11:47.305Z,93.44
2023-01-18T18:14:13.709Z,93.73
2023-01-18T18:16:43.596Z,93.60
2023-01-18T18:19:13.775Z,93.77
2023-01-18T18:21:44.375Z,93.70
2023-01-18T18:24:11.170Z,93.52
2023-01-18T18:26:37.483Z,93.44
2023-01-18T18:29:03.849Z,93.57
2023-01-18T18:31:30.204Z,93.59
2023-01-18T18:33:56.566Z,93.35
2023-01-18T18:36:26.321Z,93.74
2023-01-18T18:38:52.663Z,93.62
2023-01-18T18:41:19.213Z,93.43
2023-01-18T18:43:45.525Z,93.65
2023-01-18T18:46:13.194Z,93.89
2023-01-18T18:48:39.538Z,93.44
2023-01-18T18:51:05.890Z,93.50
2023-01-18T18:53:38.550Z,93.61
2023-01-18T18:56:08.956Z,93.62
2023-01-18T18:58:36.024Z,93.24
2023-01-18T19:01:04.310Z,93.56
2023-01-18T19:03:31.062Z,93.45
2023-01-18T19:05:57.667Z,93.66
2023-01-18T19:08:23.947Z,93.62
2023-01-18T19:10:51.044Z,93.59
2023-01-18T19:13:18.544Z,93.63
2023-01-18T19:15:46.152Z,93.64
2023-01-18T19:18:13.099Z,93.85
2023-01-18T19:20:40.012Z,93.74
2023-01-18T19:23:06.748Z,94.03
2023-01-18T19:25:33.325Z,93.48
2023-01-18T19:27:59.595Z,93.96
2023-01-18T19:30:26.381Z,93.81
2023-01-18T19:32:52.960Z,93.73
2023-01-18T19:35:21.029Z,93.72
2023-01-18T19:37:48.355Z,93.68
2023-01-18T19:40:16.039Z,93.95
2023-01-18T19:42:43.734Z,93.88
2023-01-18T19:45:13.892Z,93.65
2023-01-18T19:47:47.613Z,93.83
2023-01-18T19:50:14.834Z,93.93
2023-01-18T19:52:41.182Z,93.96
2023-01-18T19:55:08.268Z,94.03
2023-01-18T19:57:34.642Z,94.10
2023-01-18T20:00:03.289Z,93.88
2023-01-18T20:02:39.756Z,94.02
2023-01-18T20:05:06.543Z,93.62
2023-01-18T20:07:33.038Z,94.10
2023-01-18T20:09:59.386Z,93.94
2023-01-18T20:12:28.571Z,94.11
2023-01-18T20:14:54.861Z,94.07
2023-01-18T20:17:21.313Z,94.27
2023-01-18T20:19:50.294Z,94.25
2023-01-18T20:22:16.696Z,93.97
2023-01-18T20:24:43.557Z,94.08
2023-01-18T20:27:16.080Z,94.06
2023-01-18T20:29:43.518Z,94.10
2023-01-18T20:32:16.204Z,94.09
2023-01-18T20:34:45.723Z,93.88
2023-01-18T20:37:12.760Z,94.15
2023-01-18T20:39:39.300Z,94.29
2023-01-18T20:42:05.753Z,94.19
2023-01-18T20:44:32.260Z,93.93
2023-01-18T20:46:58.679Z,94.02
2023-01-18T20:49:37.233Z,93.92
2023-01-18T20:52:06.026Z,93.70
2023-01-18T20:54:34.153Z,93.46
2023-01-18T20:57:01.119Z,93.70
2023-01-18T20:59:27.502Z,94.01
2023-01-18T21:01:54.036Z,93.71
2023-01-18T21:04:20.472Z,93.64
2023-01-18T21:06:49.060Z,93.81
2023-01-18T21:09:15.981Z,93.60
2023-01-18T21:11:42.644Z,93.86
2023-01-18T21:14:09.151Z,93.68
2023-01-18T21:16:35.644Z,93.67
2023-01-18T21:19:02.008Z,93.75
2023-01-18T21:21:30.676Z,93.73
2023-01-18T21:23:57.714Z,93.90
2023-01-18T21:26:24.066Z,93.62
2023-01-18T21:28:50.355Z,93.76
2023-01-18T21:31:17.013Z,93.59
2023-01-18T21:33:43.459Z,93.99
2023-01-18T21:36:16.890Z,93.49
2023-01-18T21:38:43.272Z,93.62
2023-01-18T21:41:28.724Z,93.89
2023-01-18T21:44:13.610Z,93.53
2023-01-18T21:46:47.420Z,93.90
2023-01-18T21:49:47.224Z,93.38
2023-01-18T21:52:37.754Z,93.73
2023-01-18T21:55:04.348Z,93.40
2023-01-18T21:57:30.668Z,93.85
2023-01-18T21:59:57.008Z,93.84
2023-01-18T22:02:23.414Z,93.37
2023-01-18T22:04:59.423Z,93.22
2023-01-18T22:07:27.513Z,93.70
2023-01-18T22:10:03.897Z,93.60
2023-01-18T22:12:32.711Z,93.77
2023-01-18T22:15:01.158Z,93.48
2023-01-18T22:17:27.500Z,93.78
2023-01-18T22:19:54.034Z,93.75
2023-01-18T22:22:20.321Z,94.11
2023-01-18T22:24:46.701Z,93.40
2023-01-18T22:27:13.132Z,93.57
2023-01-18T22:29:39.412Z,93.36
2023-01-18T22:32:05.851Z,93.54
2023-01-18T22:34:32.245Z,93.44
2023-01-18T22:36:58.589Z,93.30
2023-01-18T22:39:24.876Z,93.35
2023-01-18T22:41:51.142Z,93.41
2023-01-18T22:44:17.588Z,93.15
2023-01-18T22:46:44.077Z,93.26
2023-01-18T22:49:10.682Z,93.42
2023-01-18T22:51:37.027Z,93.42
2023-01-18T22:54:03.428Z,93.04
2023-01-18T22:56:29.773Z,93.30
2023-01-18T22:58:56.259Z,93.63
2023-01-18T23:01:25.999Z,93.44
2023-01-18T23:03:55.179Z,93.40
2023-01-18T23:06:21.575Z,93.22
2023-01-18T23:08:48.570Z,93.24
2023-01-18T23:11:18.541Z,93.43
2023-01-18T23:14:08.049Z,93.32
2023-01-18T23:16:54.398Z,93.09
2023-01-18T23:19:23.357Z,93.21
2023-01-18T23:21:50.444Z,93.34
2023-01-18T23:24:17.520Z,93.21
2023-01-18T23:26:44.183Z,93.03
2023-01-18T23:29:10.477Z,93.07
2023-01-18T23:31:36.853Z,93.15
2023-01-18T23:34:03.239Z,92.83
2023-01-18T23:36:29.558Z,93.28
2023-01-18T23:39:14.835Z,93.18
2023-01-18T23:41:59.976Z,93.24
2023-01-18T23:44:45.037Z,93.00
2023-01-18T23:47:29.939Z,93.38
2023-01-18T23:50:15.141Z,93.35
2023-01-18T23:53:00.434Z,93.07
2023-01-18T23:55:26.690Z,93.38
2023-01-18T23:57:53.098Z,93.42
